sensor_id;sensor_type;location;lat;lon;timestamp;temperature;humidity
24468;DHT22;12634;50.852;5.676;2023-10-19T00:00:55;15.40;99.90
24468;DHT22;12634;50.852;5.676;2023-10-19T00:03:23;15.40;99.90
24468;DHT22;12634;50.852;5.676;2023-10-19T00:05:50;15.40;99.90
24468;DHT22;12634;50.852;5.676;2023-10-19T00:08:19;15.50;99.90
24468;DHT22;12634;50.852;5.676;2023-10-19T00:10:47;15.60;99.90
24468;DHT22;12634;50.852;5.676;2023-10-19T00:13:28;15.50;99.90
24468;DHT22;12634;50.852;5.676;2023-10-19T00:15:56;15.60;99.90
24468;DHT22;12634;50.852;5.676;2023-10-19T00:18:24;15.60;99.90
24468;DHT22;12634;50.852;5.676;2023-10-19T00:20:54;15.70;99.90
24468;DHT22;12634;50.852;5.676;2023-10-19T00:23:26;15.70;99.90
24468;DHT22;12634;50.852;5.676;2023-10-19T00:25:58;15.70;99.90
24468;DHT22;12634;50.852;5.676;2023-10-19T00:28:26;15.60;99.90
24468;DHT22;12634;50.852;5.676;2023-10-19T00:30:54;15.60;99.90
24468;DHT22;12634;50.852;5.676;2023-10-19T00:33:26;15.60;99.90
24468;DHT22;12634;50.852;5.676;2023-10-19T00:35:54;15.60;99.90
24468;DHT22;12634;50.852;5.676;2023-10-19T00:38:28;15.60;99.90
24468;DHT22;12634;50.852;5.676;2023-10-19T00:41:05;15.60;99.90
24468;DHT22;12634;50.852;5.676;2023-10-19T00:43:38;15.60;99.90
24468;DHT22;12634;50.852;5.676;2023-10-19T00:46:10;15.60;99.90
24468;DHT22;12634;50.852;5.676;2023-10-19T00:48:45;15.60;99.90
24468;DHT22;12634;50.852;5.676;2023-10-19T00:51:13;15.70;99.90
24468;DHT22;12634;50.852;5.676;2023-10-19T00:53:54;15.70;99.90
24468;DHT22;12634;50.852;5.676;2023-10-19T00:56:23;15.80;99.90
24468;DHT22;12634;50.852;5.676;2023-10-19T00:58:53;15.90;99.90
24468;DHT22;12634;50.852;5.676;2023-10-19T01:01:27;16.00;99.90
24468;DHT22;12634;50.852;5.676;2023-10-19T01:03:55;16.10;99.90
24468;DHT22;12634;50.852;5.676;2023-10-19T01:06:23;16.20;99.90
24468;DHT22;12634;50.852;5.676;2023-10-19T01:08:51;16.20;99.90
24468;DHT22;12634;50.852;5.676;2023-10-19T01:11:20;16.20;99.90
24468;DHT22;12634;50.852;5.676;2023-10-19T01:13:54;16.20;99.90
24468;DHT22;12634;50.852;5.676;2023-10-19T01:16:21;16.10;99.90
24468;DHT22;12634;50.852;5.676;2023-10-19T01:18:50;16.10;99.90
24468;DHT22;12634;50.852;5.676;2023-10-19T01:21:21;16.10;99.90
24468;DHT22;12634;50.852;5.676;2023-10-19T01:23:52;16.20;99.90
24468;DHT22;12634;50.852;5.676;2023-10-19T01:26:20;16.20;99.90
24468;DHT22;12634;50.852;5.676;2023-10-19T01:28:52;16.10;99.90
24468;DHT22;12634;50.852;5.676;2023-10-19T01:31:24;16.10;99.90
24468;DHT22;12634;50.852;5.676;2023-10-19T01:34:04;16.10;99.90
24468;DHT22;12634;50.852;5.676;2023-10-19T01:36:31;16.00;99.90
24468;DHT22;12634;50.852;5.676;2023-10-19T01:39:04;16.00;99.90
24468;DHT22;12634;50.852;5.676;2023-10-19T01:41:35;16.10;99.90
24468;DHT22;12634;50.852;5.676;2023-10-19T01:44:03;16.10;99.90
24468;DHT22;12634;50.852;5.676;2023-10-19T01:46:30;16.00;99.90
24468;DHT22;12634;50.852;5.676;2023-10-19T01:49:00;15.90;99.90
24468;DHT22;12634;50.852;5.676;2023-10-19T01:51:29;15.90;99.90
24468;DHT22;12634;50.852;5.676;2023-10-19T01:53:59;15.90;99.90
24468;DHT22;12634;50.852;5.676;2023-10-19T01:56:29;15.90;99.90
24468;DHT22;12634;50.852;5.676;2023-10-19T01:58:55;15.90;99.90
24468;DHT22;12634;50.852;5.676;2023-10-19T02:01:23;15.80;99.90
24468;DHT22;12634;50.852;5.676;2023-10-19T02:03:55;15.80;99.90
24468;DHT22;12634;50.852;5.676;2023-10-19T02:06:24;15.90;99.90
24468;DHT22;12634;50.852;5.676;2023-10-19T02:08:56;15.80;99.90
24468;DHT22;12634;50.852;5.676;2023-10-19T02:11:26;15.90;99.90
24468;DHT22;12634;50.852;5.676;2023-10-19T02:13:56;15.90;99.90
24468;DHT22;12634;50.852;5.676;2023-10-19T02:16:26;16.00;99.90
24468;DHT22;12634;50.852;5.676;2023-10-19T02:18:55;16.00;99.90
24468;DHT22;12634;50.852;5.676;2023-10-19T02:21:23;16.00;99.90
24468;DHT22;12634;50.852;5.676;2023-10-19T02:23:52;16.00;99.90
24468;DHT22;12634;50.852;5.676;2023-10-19T02:26:20;16.00;99.90
24468;DHT22;12634;50.852;5.676;2023-10-19T02:28:49;16.00;99.90
24468;DHT22;12634;50.852;5.676;2023-10-19T02:31:19;15.90;99.90
24468;DHT22;12634;50.852;5.676;2023-10-19T02:33:47;15.90;99.90
24468;DHT22;12634;50.852;5.676;2023-10-19T02:36:18;16.00;99.90
24468;DHT22;12634;50.852;5.676;2023-10-19T02:38:45;16.00;99.90
24468;DHT22;12634;50.852;5.676;2023-10-19T02:41:17;15.90;99.90
24468;DHT22;12634;50.852;5.676;2023-10-19T02:43:43;15.90;99.90
24468;DHT22;12634;50.852;5.676;2023-10-19T02:46:17;15.90;99.90
24468;DHT22;12634;50.852;5.676;2023-10-19T02:48:44;15.80;99.90
24468;DHT22;12634;50.852;5.676;2023-10-19T02:51:11;15.80;99.90
24468;DHT22;12634;50.852;5.676;2023-10-19T02:53:38;15.80;99.90
24468;DHT22;12634;50.852;5.676;2023-10-19T02:56:10;15.60;99.90
24468;DHT22;12634;50.852;5.676;2023-10-19T02:58:38;15.70;99.90
24468;DHT22;12634;50.852;5.676;2023-10-19T03:01:13;15.60;99.90
24468;DHT22;12634;50.852;5.676;2023-10-19T03:03:44;15.60;99.90
24468;DHT22;12634;50.852;5.676;2023-10-19T03:06:12;15.60;99.90
24468;DHT22;12634;50.852;5.676;2023-10-19T03:08:38;15.70;99.90
24468;DHT22;12634;50.852;5.676;2023-10-19T03:11:05;15.70;99.90
24468;DHT22;12634;50.852;5.676;2023-10-19T03:13:33;15.70;99.90
24468;DHT22;12634;50.852;5.676;2023-10-19T03:16:00;15.60;99.90
24468;DHT22;12634;50.852;5.676;2023-10-19T03:18:27;15.50;99.90
24468;DHT22;12634;50.852;5.676;2023-10-19T03:20:55;15.50;99.90
24468;DHT22;12634;50.852;5.676;2023-10-19T03:23:22;15.30;99.90
24468;DHT22;12634;50.852;5.676;2023-10-19T03:25:55;15.40;99.90
24468;DHT22;12634;50.852;5.676;2023-10-19T03:28:39;15.20;99.90
24468;DHT22;12634;50.852;5.676;2023-10-19T03:31:08;15.40;99.90
24468;DHT22;12634;50.852;5.676;2023-10-19T03:33:43;15.30;99.90
24468;DHT22;12634;50.852;5.676;2023-10-19T03:36:15;15.30;99.90
24468;DHT22;12634;50.852;5.676;2023-10-19T03:38:42;15.30;99.90
24468;DHT22;12634;50.852;5.676;2023-10-19T03:41:10;15.40;99.90
24468;DHT22;12634;50.852;5.676;2023-10-19T03:43:37;15.30;99.90
24468;DHT22;12634;50.852;5.676;2023-10-19T03:46:06;15.20;99.90
24468;DHT22;12634;50.852;5.676;2023-10-19T03:48:45;15.20;99.90
24468;DHT22;12634;50.852;5.676;2023-10-19T03:51:13;15.20;99.90
24468;DHT22;12634;50.852;5.676;2023-10-19T03:53:42;15.10;99.90
24468;DHT22;12634;50.852;5.676;2023-10-19T03:56:14;15.10;99.90
24468;DHT22;12634;50.852;5.676;2023-10-19T03:58:44;15.10;99.90
24468;DHT22;12634;50.852;5.676;2023-10-19T04:01:14;15.00;99.90
24468;DHT22;12634;50.852;5.676;2023-10-19T04:03:42;15.10;99.90
24468;DHT22;12634;50.852;5.676;2023-10-19T04:06:10;15.10;99.90
24468;DHT22;12634;50.852;5.676;2023-10-19T04:08:41;15.20;99.90
24468;DHT22;12634;50.852;5.676;2023-10-19T04:11:11;15.20;99.90
24468;DHT22;12634;50.852;5.676;2023-10-19T04:13:48;15.20;99.90
24468;DHT22;12634;50.852;5.676;2023-10-19T04:16:19;15.20;99.90
24468;DHT22;12634;50.852;5.676;2023-10-19T04:18:47;15.10;99.90
24468;DHT22;12634;50.852;5.676;2023-10-19T04:21:15;15.00;99.90
24468;DHT22;12634;50.852;5.676;2023-10-19T04:23:44;14.90;99.90
24468;DHT22;12634;50.852;5.676;2023-10-19T04:26:12;14.90;99.90
24468;DHT22;12634;50.852;5.676;2023-10-19T04:28:44;15.00;99.90
24468;DHT22;12634;50.852;5.676;2023-10-19T04:31:15;14.90;99.90
24468;DHT22;12634;50.852;5.676;2023-10-19T04:33:43;14.80;99.90
24468;DHT22;12634;50.852;5.676;2023-10-19T04:36:16;14.80;99.90
24468;DHT22;12634;50.852;5.676;2023-10-19T04:38:48;14.70;99.90
24468;DHT22;12634;50.852;5.676;2023-10-19T04:41:15;14.80;99.90
24468;DHT22;12634;50.852;5.676;2023-10-19T04:43:42;14.70;99.90
24468;DHT22;12634;50.852;5.676;2023-10-19T04:46:15;14.70;99.90
24468;DHT22;12634;50.852;5.676;2023-10-19T04:48:44;14.80;99.90
24468;DHT22;12634;50.852;5.676;2023-10-19T04:51:12;14.80;99.90
24468;DHT22;12634;50.852;5.676;2023-10-19T04:53:40;14.80;99.90
24468;DHT22;12634;50.852;5.676;2023-10-19T04:56:09;14.80;99.90
24468;DHT22;12634;50.852;5.676;2023-10-19T04:58:38;14.80;99.90
24468;DHT22;12634;50.852;5.676;2023-10-19T05:01:05;14.70;99.90
24468;DHT22;12634;50.852;5.676;2023-10-19T05:03:32;14.70;99.90
24468;DHT22;12634;50.852;5.676;2023-10-19T05:06:00;14.70;99.90
24468;DHT22;12634;50.852;5.676;2023-10-19T05:08:28;14.70;99.90
24468;DHT22;12634;50.852;5.676;2023-10-19T05:10:56;14.70;99.90
24468;DHT22;12634;50.852;5.676;2023-10-19T05:13:27;14.70;99.90
24468;DHT22;12634;50.852;5.676;2023-10-19T05:15:56;14.70;99.90
24468;DHT22;12634;50.852;5.676;2023-10-19T05:18:25;14.60;99.90
24468;DHT22;12634;50.852;5.676;2023-10-19T05:20:53;14.60;99.90
24468;DHT22;12634;50.852;5.676;2023-10-19T05:23:22;14.60;99.90
24468;DHT22;12634;50.852;5.676;2023-10-19T05:25:51;14.70;99.90
24468;DHT22;12634;50.852;5.676;2023-10-19T05:28:19;14.70;99.90
24468;DHT22;12634;50.852;5.676;2023-10-19T05:30:49;14.70;99.90
24468;DHT22;12634;50.852;5.676;2023-10-19T05:33:16;14.60;99.90
24468;DHT22;12634;50.852;5.676;2023-10-19T05:35:47;14.50;99.90
24468;DHT22;12634;50.852;5.676;2023-10-19T05:38:14;14.50;99.90
24468;DHT22;12634;50.852;5.676;2023-10-19T05:40:41;14.50;99.90
24468;DHT22;12634;50.852;5.676;2023-10-19T05:43:09;14.50;99.90
24468;DHT22;12634;50.852;5.676;2023-10-19T05:45:37;14.50;99.90
24468;DHT22;12634;50.852;5.676;2023-10-19T05:48:06;14.40;99.90
24468;DHT22;12634;50.852;5.676;2023-10-19T05:50:34;14.50;99.90
24468;DHT22;12634;50.852;5.676;2023-10-19T05:53:01;14.50;99.90
24468;DHT22;12634;50.852;5.676;2023-10-19T05:55:30;14.60;99.90
24468;DHT22;12634;50.852;5.676;2023-10-19T05:57:58;14.50;99.90
24468;DHT22;12634;50.852;5.676;2023-10-19T06:00:26;14.40;99.90
24468;DHT22;12634;50.852;5.676;2023-10-19T06:02:53;14.40;99.90
24468;DHT22;12634;50.852;5.676;2023-10-19T06:05:21;14.30;99.90
24468;DHT22;12634;50.852;5.676;2023-10-19T06:07:50;14.30;99.90
24468;DHT22;12634;50.852;5.676;2023-10-19T06:10:19;14.30;99.90
24468;DHT22;12634;50.852;5.676;2023-10-19T06:12:49;14.30;99.90
24468;DHT22;12634;50.852;5.676;2023-10-19T06:15:17;14.40;99.90
24468;DHT22;12634;50.852;5.676;2023-10-19T06:17:47;14.40;99.90
24468;DHT22;12634;50.852;5.676;2023-10-19T06:20:15;14.50;99.90
24468;DHT22;12634;50.852;5.676;2023-10-19T06:22:54;14.50;99.90
24468;DHT22;12634;50.852;5.676;2023-10-19T06:25:23;14.60;99.90
24468;DHT22;12634;50.852;5.676;2023-10-19T06:27:52;14.60;99.90
24468;DHT22;12634;50.852;5.676;2023-10-19T06:30:20;14.70;99.90
24468;DHT22;12634;50.852;5.676;2023-10-19T06:32:50;14.80;99.90
24468;DHT22;12634;50.852;5.676;2023-10-19T06:35:17;14.90;99.90
24468;DHT22;12634;50.852;5.676;2023-10-19T06:37:45;14.90;99.90
24468;DHT22;12634;50.852;5.676;2023-10-19T06:40:15;15.00;99.90
24468;DHT22;12634;50.852;5.676;2023-10-19T06:42:42;15.10;99.90
24468;DHT22;12634;50.852;5.676;2023-10-19T06:45:11;15.10;99.90
24468;DHT22;12634;50.852;5.676;2023-10-19T06:47:40;15.10;99.90
24468;DHT22;12634;50.852;5.676;2023-10-19T06:50:09;15.10;99.90
24468;DHT22;12634;50.852;5.676;2023-10-19T06:52:37;15.20;99.90
24468;DHT22;12634;50.852;5.676;2023-10-19T06:55:05;15.20;99.90
24468;DHT22;12634;50.852;5.676;2023-10-19T06:57:40;15.20;99.90
24468;DHT22;12634;50.852;5.676;2023-10-19T07:00:10;15.30;99.90
24468;DHT22;12634;50.852;5.676;2023-10-19T07:02:41;15.50;99.90
24468;DHT22;12634;50.852;5.676;2023-10-19T07:05:09;15.50;99.90
24468;DHT22;12634;50.852;5.676;2023-10-19T07:07:39;15.50;99.90
24468;DHT22;12634;50.852;5.676;2023-10-19T07:10:08;15.50;99.90
24468;DHT22;12634;50.852;5.676;2023-10-19T07:12:36;15.50;99.90
24468;DHT22;12634;50.852;5.676;2023-10-19T07:15:06;15.50;99.90
24468;DHT22;12634;50.852;5.676;2023-10-19T07:17:35;15.50;99.90
24468;DHT22;12634;50.852;5.676;2023-10-19T07:20:04;15.50;99.90
24468;DHT22;12634;50.852;5.676;2023-10-19T07:22:35;15.50;99.90
24468;DHT22;12634;50.852;5.676;2023-10-19T07:25:05;15.40;99.90
24468;DHT22;12634;50.852;5.676;2023-10-19T07:27:34;15.30;99.90
24468;DHT22;12634;50.852;5.676;2023-10-19T07:30:01;15.40;99.90
24468;DHT22;12634;50.852;5.676;2023-10-19T07:32:33;15.60;99.90
24468;DHT22;12634;50.852;5.676;2023-10-19T07:35:00;15.90;99.90
24468;DHT22;12634;50.852;5.676;2023-10-19T07:37:28;16.00;99.90
24468;DHT22;12634;50.852;5.676;2023-10-19T07:39:55;15.90;99.90
24468;DHT22;12634;50.852;5.676;2023-10-19T07:42:23;15.70;99.90
24468;DHT22;12634;50.852;5.676;2023-10-19T07:44:51;15.60;99.90
24468;DHT22;12634;50.852;5.676;2023-10-19T07:47:18;15.40;99.90
24468;DHT22;12634;50.852;5.676;2023-10-19T07:49:47;15.40;99.90
24468;DHT22;12634;50.852;5.676;2023-10-19T07:52:17;15.40;99.90
24468;DHT22;12634;50.852;5.676;2023-10-19T07:54:44;15.40;99.90
24468;DHT22;12634;50.852;5.676;2023-10-19T07:57:12;15.50;99.90
24468;DHT22;12634;50.852;5.676;2023-10-19T07:59:41;15.60;99.90
24468;DHT22;12634;50.852;5.676;2023-10-19T08:02:09;15.90;99.90
24468;DHT22;12634;50.852;5.676;2023-10-19T08:04:36;16.40;99.90
24468;DHT22;12634;50.852;5.676;2023-10-19T08:07:05;16.90;99.90
24468;DHT22;12634;50.852;5.676;2023-10-19T08:09:32;17.30;99.90
24468;DHT22;12634;50.852;5.676;2023-10-19T08:12:01;17.60;99.90
24468;DHT22;12634;50.852;5.676;2023-10-19T08:14:31;17.50;99.90
24468;DHT22;12634;50.852;5.676;2023-10-19T08:16:58;17.40;99.90
24468;DHT22;12634;50.852;5.676;2023-10-19T08:19:27;17.50;99.90
24468;DHT22;12634;50.852;5.676;2023-10-19T08:21:57;17.40;99.90
24468;DHT22;12634;50.852;5.676;2023-10-19T08:24:25;17.30;99.90
24468;DHT22;12634;50.852;5.676;2023-10-19T08:26:55;17.40;99.90
24468;DHT22;12634;50.852;5.676;2023-10-19T08:29:22;17.70;99.90
24468;DHT22;12634;50.852;5.676;2023-10-19T08:31:49;17.40;99.90
24468;DHT22;12634;50.852;5.676;2023-10-19T08:34:17;17.30;99.90
24468;DHT22;12634;50.852;5.676;2023-10-19T08:36:46;17.40;99.90
24468;DHT22;12634;50.852;5.676;2023-10-19T08:39:15;17.00;99.90
24468;DHT22;12634;50.852;5.676;2023-10-19T08:41:45;17.00;99.90
24468;DHT22;12634;50.852;5.676;2023-10-19T08:44:15;17.60;99.90
24468;DHT22;12634;50.852;5.676;2023-10-19T08:46:44;17.70;99.90
24468;DHT22;12634;50.852;5.676;2023-10-19T08:49:14;17.60;99.90
24468;DHT22;12634;50.852;5.676;2023-10-19T08:51:44;17.60;99.90
24468;DHT22;12634;50.852;5.676;2023-10-19T08:54:12;17.50;99.90
24468;DHT22;12634;50.852;5.676;2023-10-19T08:56:40;17.60;99.90
24468;DHT22;12634;50.852;5.676;2023-10-19T08:59:09;17.50;99.90
24468;DHT22;12634;50.852;5.676;2023-10-19T09:01:37;17.50;99.90
24468;DHT22;12634;50.852;5.676;2023-10-19T09:04:05;17.40;99.90
24468;DHT22;12634;50.852;5.676;2023-10-19T09:06:35;17.30;99.90
24468;DHT22;12634;50.852;5.676;2023-10-19T09:09:07;17.40;99.90
24468;DHT22;12634;50.852;5.676;2023-10-19T09:11:39;17.40;99.90
24468;DHT22;12634;50.852;5.676;2023-10-19T09:14:09;17.50;99.90
24468;DHT22;12634;50.852;5.676;2023-10-19T09:16:39;17.60;99.90
24468;DHT22;12634;50.852;5.676;2023-10-19T09:19:20;17.50;99.90
24468;DHT22;12634;50.852;5.676;2023-10-19T09:21:47;17.50;99.90
24468;DHT22;12634;50.852;5.676;2023-10-19T09:24:15;17.50;99.90
24468;DHT22;12634;50.852;5.676;2023-10-19T09:26:44;17.50;99.90
24468;DHT22;12634;50.852;5.676;2023-10-19T09:29:17;17.60;99.90
24468;DHT22;12634;50.852;5.676;2023-10-19T09:31:47;17.70;99.90
24468;DHT22;12634;50.852;5.676;2023-10-19T09:34:15;17.90;99.90
24468;DHT22;12634;50.852;5.676;2023-10-19T09:36:43;17.90;99.90
24468;DHT22;12634;50.852;5.676;2023-10-19T09:39:11;18.10;99.90
24468;DHT22;12634;50.852;5.676;2023-10-19T09:41:39;18.50;99.90
24468;DHT22;12634;50.852;5.676;2023-10-19T09:44:09;18.70;99.90
24468;DHT22;12634;50.852;5.676;2023-10-19T09:46:40;18.70;99.90
24468;DHT22;12634;50.852;5.676;2023-10-19T09:49:08;19.00;99.90
24468;DHT22;12634;50.852;5.676;2023-10-19T09:51:40;18.80;99.90
24468;DHT22;12634;50.852;5.676;2023-10-19T09:54:17;18.90;99.90
24468;DHT22;12634;50.852;5.676;2023-10-19T09:56:52;18.80;99.90
24468;DHT22;12634;50.852;5.676;2023-10-19T09:59:29;18.70;99.90
24468;DHT22;12634;50.852;5.676;2023-10-19T10:02:10;19.10;99.90
24468;DHT22;12634;50.852;5.676;2023-10-19T10:04:40;19.10;99.90
24468;DHT22;12634;50.852;5.676;2023-10-19T10:07:08;19.20;99.90
24468;DHT22;12634;50.852;5.676;2023-10-19T10:09:37;19.60;99.90
24468;DHT22;12634;50.852;5.676;2023-10-19T10:12:19;19.10;99.90
24468;DHT22;12634;50.852;5.676;2023-10-19T10:14:59;19.40;99.90
24468;DHT22;12634;50.852;5.676;2023-10-19T10:17:30;19.70;99.90
24468;DHT22;12634;50.852;5.676;2023-10-19T10:20:30;19.40;99.90
24468;DHT22;12634;50.852;5.676;2023-10-19T10:23:18;19.40;99.90
24468;DHT22;12634;50.852;5.676;2023-10-19T10:25:50;19.60;99.90
24468;DHT22;12634;50.852;5.676;2023-10-19T10:28:19;19.50;99.90
24468;DHT22;12634;50.852;5.676;2023-10-19T10:31:08;19.30;99.90
24468;DHT22;12634;50.852;5.676;2023-10-19T10:33:41;19.60;99.90
24468;DHT22;12634;50.852;5.676;2023-10-19T10:36:11;19.70;99.90
24468;DHT22;12634;50.852;5.676;2023-10-19T10:38:38;20.00;99.90
24468;DHT22;12634;50.852;5.676;2023-10-19T10:41:06;20.40;99.90
24468;DHT22;12634;50.852;5.676;2023-10-19T10:43:53;20.40;99.90
24468;DHT22;12634;50.852;5.676;2023-10-19T10:46:22;20.70;99.90
24468;DHT22;12634;50.852;5.676;2023-10-19T10:48:50;20.70;99.90
24468;DHT22;12634;50.852;5.676;2023-10-19T10:51:20;20.80;99.90
24468;DHT22;12634;50.852;5.676;2023-10-19T10:53:51;20.30;99.90
24468;DHT22;12634;50.852;5.676;2023-10-19T10:56:20;20.40;99.90
24468;DHT22;12634;50.852;5.676;2023-10-19T10:58:47;20.50;99.90
24468;DHT22;12634;50.852;5.676;2023-10-19T11:01:24;20.30;99.90
24468;DHT22;12634;50.852;5.676;2023-10-19T11:04:07;20.20;99.90
24468;DHT22;12634;50.852;5.676;2023-10-19T11:06:47;20.10;99.90
24468;DHT22;12634;50.852;5.676;2023-10-19T11:09:15;20.00;99.90
24468;DHT22;12634;50.852;5.676;2023-10-19T11:11:44;20.00;99.90
24468;DHT22;12634;50.852;5.676;2023-10-19T11:14:11;20.20;99.90
24468;DHT22;12634;50.852;5.676;2023-10-19T11:16:39;20.60;99.90
24468;DHT22;12634;50.852;5.676;2023-10-19T11:19:07;20.40;99.90
24468;DHT22;12634;50.852;5.676;2023-10-19T11:21:36;20.50;99.90
24468;DHT22;12634;50.852;5.676;2023-10-19T11:24:04;20.40;99.90
24468;DHT22;12634;50.852;5.676;2023-10-19T11:26:39;20.30;99.90
24468;DHT22;12634;50.852;5.676;2023-10-19T11:29:07;20.10;99.90
24468;DHT22;12634;50.852;5.676;2023-10-19T11:31:35;20.00;99.90
24468;DHT22;12634;50.852;5.676;2023-10-19T11:34:07;19.70;99.90
24468;DHT22;12634;50.852;5.676;2023-10-19T11:36:34;19.70;99.90
24468;DHT22;12634;50.852;5.676;2023-10-19T11:39:02;19.60;99.90
24468;DHT22;12634;50.852;5.676;2023-10-19T11:41:30;19.60;99.90
24468;DHT22;12634;50.852;5.676;2023-10-19T11:43:57;19.50;99.90
24468;DHT22;12634;50.852;5.676;2023-10-19T11:46:25;19.40;99.90
24468;DHT22;12634;50.852;5.676;2023-10-19T11:48:53;19.30;99.90
24468;DHT22;12634;50.852;5.676;2023-10-19T11:51:21;19.20;99.90
24468;DHT22;12634;50.852;5.676;2023-10-19T11:53:48;19.20;99.90
24468;DHT22;12634;50.852;5.676;2023-10-19T11:56:16;19.10;99.90
24468;DHT22;12634;50.852;5.676;2023-10-19T11:58:43;19.00;99.90
24468;DHT22;12634;50.852;5.676;2023-10-19T12:01:12;18.80;99.90
24468;DHT22;12634;50.852;5.676;2023-10-19T12:03:43;18.70;99.90
24468;DHT22;12634;50.852;5.676;2023-10-19T12:06:12;18.50;99.90
24468;DHT22;12634;50.852;5.676;2023-10-19T12:08:46;18.40;99.90
24468;DHT22;12634;50.852;5.676;2023-10-19T12:11:13;18.30;99.90
24468;DHT22;12634;50.852;5.676;2023-10-19T12:13:42;18.30;99.90
24468;DHT22;12634;50.852;5.676;2023-10-19T12:16:10;18.20;99.90
24468;DHT22;12634;50.852;5.676;2023-10-19T12:18:38;18.20;99.90
24468;DHT22;12634;50.852;5.676;2023-10-19T12:21:05;18.10;99.90
24468;DHT22;12634;50.852;5.676;2023-10-19T12:23:38;18.00;99.90
24468;DHT22;12634;50.852;5.676;2023-10-19T12:26:07;17.80;99.90
24468;DHT22;12634;50.852;5.676;2023-10-19T12:28:38;17.70;99.90
24468;DHT22;12634;50.852;5.676;2023-10-19T12:31:06;17.50;99.90
24468;DHT22;12634;50.852;5.676;2023-10-19T12:33:34;17.40;99.90
24468;DHT22;12634;50.852;5.676;2023-10-19T12:36:02;17.20;99.90
24468;DHT22;12634;50.852;5.676;2023-10-19T12:38:48;17.10;99.90
24468;DHT22;12634;50.852;5.676;2023-10-19T12:41:18;17.00;99.90
24468;DHT22;12634;50.852;5.676;2023-10-19T12:43:45;16.90;99.90
24468;DHT22;12634;50.852;5.676;2023-10-19T12:46:13;16.80;99.90
24468;DHT22;12634;50.852;5.676;2023-10-19T12:48:42;16.80;99.90
24468;DHT22;12634;50.852;5.676;2023-10-19T12:51:09;16.70;99.90
24468;DHT22;12634;50.852;5.676;2023-10-19T12:53:37;16.70;99.90
24468;DHT22;12634;50.852;5.676;2023-10-19T12:56:05;16.70;99.90
24468;DHT22;12634;50.852;5.676;2023-10-19T12:58:35;16.60;99.90
24468;DHT22;12634;50.852;5.676;2023-10-19T13:01:02;16.70;99.90
24468;DHT22;12634;50.852;5.676;2023-10-19T13:03:31;16.80;99.90
24468;DHT22;12634;50.852;5.676;2023-10-19T13:05:58;16.80;99.90
24468;DHT22;12634;50.852;5.676;2023-10-19T13:08:29;16.70;99.90
24468;DHT22;12634;50.852;5.676;2023-10-19T13:10:56;16.70;99.90
24468;DHT22;12634;50.852;5.676;2023-10-19T13:13:24;16.80;99.90
24468;DHT22;12634;50.852;5.676;2023-10-19T13:15:53;16.80;99.90
24468;DHT22;12634;50.852;5.676;2023-10-19T13:18:20;16.90;99.90
24468;DHT22;12634;50.852;5.676;2023-10-19T13:20:53;17.00;99.90
24468;DHT22;12634;50.852;5.676;2023-10-19T13:23:21;16.90;99.90
24468;DHT22;12634;50.852;5.676;2023-10-19T13:25:48;16.90;99.90
24468;DHT22;12634;50.852;5.676;2023-10-19T13:28:19;16.80;99.90
24468;DHT22;12634;50.852;5.676;2023-10-19T13:30:49;16.60;99.90
24468;DHT22;12634;50.852;5.676;2023-10-19T13:33:18;16.50;99.90
24468;DHT22;12634;50.852;5.676;2023-10-19T13:35:47;16.50;99.90
24468;DHT22;12634;50.852;5.676;2023-10-19T13:38:16;16.50;99.90
24468;DHT22;12634;50.852;5.676;2023-10-19T13:40:46;16.40;99.90
24468;DHT22;12634;50.852;5.676;2023-10-19T13:43:15;16.40;99.90
24468;DHT22;12634;50.852;5.676;2023-10-19T13:45:45;16.40;99.90
24468;DHT22;12634;50.852;5.676;2023-10-19T13:48:13;16.40;99.90
24468;DHT22;12634;50.852;5.676;2023-10-19T13:50:44;16.40;99.90
24468;DHT22;12634;50.852;5.676;2023-10-19T13:53:14;16.50;99.90
24468;DHT22;12634;50.852;5.676;2023-10-19T13:55:41;16.60;99.90
24468;DHT22;12634;50.852;5.676;2023-10-19T13:58:08;16.60;99.90
24468;DHT22;12634;50.852;5.676;2023-10-19T14:00:36;16.80;99.90
24468;DHT22;12634;50.852;5.676;2023-10-19T14:03:07;17.00;99.90
24468;DHT22;12634;50.852;5.676;2023-10-19T14:05:38;17.30;99.90
24468;DHT22;12634;50.852;5.676;2023-10-19T14:08:07;17.50;99.90
24468;DHT22;12634;50.852;5.676;2023-10-19T14:10:35;18.10;99.90
24468;DHT22;12634;50.852;5.676;2023-10-19T14:13:03;18.30;99.90
24468;DHT22;12634;50.852;5.676;2023-10-19T14:15:31;18.40;99.90
24468;DHT22;12634;50.852;5.676;2023-10-19T14:18:00;19.00;99.90
24468;DHT22;12634;50.852;5.676;2023-10-19T14:20:29;20.00;99.90
24468;DHT22;12634;50.852;5.676;2023-10-19T14:23:00;20.10;99.90
24468;DHT22;12634;50.852;5.676;2023-10-19T14:25:29;20.20;99.90
24468;DHT22;12634;50.852;5.676;2023-10-19T14:27:57;20.20;99.90
24468;DHT22;12634;50.852;5.676;2023-10-19T14:30:26;19.50;99.90
24468;DHT22;12634;50.852;5.676;2023-10-19T14:32:55;18.80;99.90
24468;DHT22;12634;50.852;5.676;2023-10-19T14:35:24;18.40;99.90
24468;DHT22;12634;50.852;5.676;2023-10-19T14:37:53;18.30;99.90
24468;DHT22;12634;50.852;5.676;2023-10-19T14:40:23;18.30;99.90
24468;DHT22;12634;50.852;5.676;2023-10-19T14:42:53;18.20;99.90
24468;DHT22;12634;50.852;5.676;2023-10-19T14:45:24;18.60;99.90
24468;DHT22;12634;50.852;5.676;2023-10-19T14:47:55;18.70;99.90
24468;DHT22;12634;50.852;5.676;2023-10-19T14:50:23;19.30;99.90
24468;DHT22;12634;50.852;5.676;2023-10-19T14:52:53;19.80;99.90
24468;DHT22;12634;50.852;5.676;2023-10-19T14:55:21;19.90;99.90
24468;DHT22;12634;50.852;5.676;2023-10-19T14:57:50;20.20;99.90
24468;DHT22;12634;50.852;5.676;2023-10-19T15:00:21;20.20;99.90
24468;DHT22;12634;50.852;5.676;2023-10-19T15:02:53;20.20;99.90
24468;DHT22;12634;50.852;5.676;2023-10-19T15:05:22;19.70;99.90
24468;DHT22;12634;50.852;5.676;2023-10-19T15:07:51;19.50;99.90
24468;DHT22;12634;50.852;5.676;2023-10-19T15:10:19;19.40;99.90
24468;DHT22;12634;50.852;5.676;2023-10-19T15:12:47;19.50;99.90
24468;DHT22;12634;50.852;5.676;2023-10-19T15:15:15;19.30;99.90
24468;DHT22;12634;50.852;5.676;2023-10-19T15:17:44;19.60;99.90
24468;DHT22;12634;50.852;5.676;2023-10-19T15:20:12;19.60;99.90
24468;DHT22;12634;50.852;5.676;2023-10-19T15:22:40;19.60;99.90
24468;DHT22;12634;50.852;5.676;2023-10-19T15:25:08;19.40;99.90
24468;DHT22;12634;50.852;5.676;2023-10-19T15:27:37;19.20;99.90
24468;DHT22;12634;50.852;5.676;2023-10-19T15:30:05;19.20;99.90
24468;DHT22;12634;50.852;5.676;2023-10-19T15:32:33;19.10;99.90
24468;DHT22;12634;50.852;5.676;2023-10-19T15:35:03;18.80;99.90
24468;DHT22;12634;50.852;5.676;2023-10-19T15:37:30;18.40;99.90
24468;DHT22;12634;50.852;5.676;2023-10-19T15:39:57;18.20;99.90
24468;DHT22;12634;50.852;5.676;2023-10-19T15:42:25;18.20;99.90
24468;DHT22;12634;50.852;5.676;2023-10-19T15:44:52;18.20;99.90